• Join FlightAware (Why Join?)
  • Login
  • US Flag 
03:43PM EDT


 

Airport Tracker/Info


-or-


 

Live Flight TrackerFlight Track Log ✈ SWA22 ✈ 04-Apr-2013 ✈ KDAL - KAMA

Flight Track Log - Related Links

Times and Time Zones

All times are in EDT time to prevent confusion due to time zone crossing. See the SWA22 flight status page for this flight to view local times or setup timezone preferences in your user account.

Time Position Orientation Groundspeed Altitude Reporting Facility
EDT Latitude Longitude Course Direction KTS MPH feet Rate Location/Type
02:25PM 32.8833 -96.9000 308° West 183 211 2,600  Level Dallas / Fort Worth TRACON
02:26PM 32.9167 -96.9500 308° West 216 249 5,900 3,180 Climbing Dallas / Fort Worth TRACON
02:28PM 32.9872 -97.0344 315° West 219 252 11,500 2,700 Climbing Fort Worth Center
02:29PM 33.0125 -97.1111 291° West 236 272 13,200 2,100 Climbing Fort Worth Center
02:30PM 33.0253 -97.2178 278° West 280 322 15,700 2,460 Climbing Fort Worth Center
02:31PM 33.0400 -97.3417 278° West 329 379 18,200 2,220 Climbing Fort Worth Center
02:32PM 33.0525 -97.4506 278° West 365 420 20,200 2,220 Climbing Fort Worth Center
02:33PM 33.0711 -97.5869 279° West 378 435 22,700 2,100 Climbing Fort Worth Center
02:34PM 33.0878 -97.7061 280° West 389 448 24,400 1,740 Climbing Fort Worth Center
02:35PM 33.1250 -97.8325 289° West 394 453 26,200 1,740 Climbing Fort Worth Center
02:36PM 33.1661 -97.9744 289° West 406 467 27,900 1,860 Climbing Fort Worth Center
02:37PM 33.2072 -98.1036 291° West 411 473 30,000 1,260 Climbing Fort Worth Center
02:38PM 33.2481 -98.2331 291° West 411 473 30,500 960 Climbing Fort Worth Center
02:39PM 33.2869 -98.3553 291° West 403 464 32,000 720 Climbing Fort Worth Center
02:40PM 33.3236 -98.4775 290° West 397 457 32,000  Level Fort Worth Center
02:41PM 33.3619 -98.6022 290° West 397 457 32,000  Level Fort Worth Center
02:42PM 33.4025 -98.7272 291° West 402 463 32,000  Level Fort Worth Center
02:43PM 33.4389 -98.8497 290° West 402 463 32,000  Level Fort Worth Center
02:44PM 33.4769 -98.9750 290° West 402 463 32,000  Level Fort Worth Center
02:45PM 33.5211 -99.1003 293° West 408 470 32,000  Level Fort Worth Center
02:46PM 33.5908 -99.2039 309° West 401 461 32,000  Level Fort Worth Center
02:47PM 33.6622 -99.3053 310° West 401 461 32,000  Level Fort Worth Center
02:48PM 33.7336 -99.4092 310° West 401 461 32,000  Level Fort Worth Center
02:49PM 33.8031 -99.5131 309° West 401 461 32,000  Level Fort Worth Center
02:50PM 33.8722 -99.6175 309° West 401 461 32,000  Level Fort Worth Center
02:51PM 33.9414 -99.7192 309° West 401 461 32,000  Level Fort Worth Center
02:52PM 34.0436 -99.8714 309° West 397 457 32,000  Level Albuquerque Center
02:53PM 34.1125 -99.9742 309° West 394 453 32,000  Level Albuquerque Center
02:54PM 34.1811 -100.0786 308° West 394 453 32,000  Level Albuquerque Center
02:55PM 34.2536 -100.1864 309° West 393 452 32,000  Level Albuquerque Center
02:56PM 34.3214 -100.2900 308° West 392 451 32,000  Level Albuquerque Center
02:57PM 34.3903 -100.3914 309° West 392 451 32,000 -120 Level Albuquerque Center
02:58PM 34.4581 -100.4950 308° West 392 451 31,800 -780 Descending Albuquerque Center
03:00PM 34.5389 -100.6192 308° West 391 450 30,500 -1,140 Descending Albuquerque Center
03:01PM 34.6050 -100.7194 309° West 384 442 29,500 -1,740 Descending Albuquerque Center
03:02PM 34.6714 -100.8206 309° West 383 441 27,000 -2,460 Descending Albuquerque Center
03:03PM 34.7350 -100.9189 308° West 376 433 24,500 -3,180 Descending Albuquerque Center
03:04PM 34.7975 -101.0119 309° West 364 419 20,500 -3,780 Descending Albuquerque Center
03:05PM 34.8592 -101.1089 308° West 362 417 16,800 -3,900 Descending Albuquerque Center
03:06PM 34.9208 -101.2294 302° West 354 407 12,500 -3,360 Descending Albuquerque Center
03:07PM 34.9761 -101.3211 306° West 343 395 9,900 -1,620 Descending Albuquerque Center
03:08PM 35.0244 -101.4003 307° West 312 359 9,200 -1,320 Descending Albuquerque Center
03:09PM 35.0697 -101.4747 307° West 284 327 7,200 -1,440 Descending Albuquerque Center
03:10PM 35.1144 -101.5492 306° West 277 319 6,300 -900 Descending Albuquerque Center
03:11PM 35.1456 -101.6011 306° West 220 253 5,400 -900 Descending Albuquerque Center
03:12PM 35.1756 -101.6353 317° Northwest 174 200 4,500 -780 Descending Albuquerque Center
03:13PM 35.2047 -101.6683 317° Northwest 153 176 3,900 -600 Descending Albuquerque Center
03:15PM 35.2167 -101.7000 219° Southwest  Level FlightAware Approximate